createdAt,value
2023-05-13T00:01:03.958Z,69.96
2023-05-13T00:03:33.308Z,69.35
2023-05-13T00:06:01.365Z,69.67
2023-05-13T00:08:28.893Z,69.54
2023-05-13T00:10:56.383Z,68.98
2023-05-13T00:13:23.857Z,69.02
2023-05-13T00:15:51.416Z,69.30
2023-05-13T00:18:18.944Z,69.22
2023-05-13T00:20:47.754Z,70.03
2023-05-13T00:23:15.445Z,70.48
2023-05-13T00:25:44.517Z,70.14
2023-05-13T00:28:13.978Z,69.85
2023-05-13T00:30:42.161Z,69.88
2023-05-13T00:33:10.396Z,70.26
2023-05-13T00:35:37.908Z,70.51
2023-05-13T00:38:07.887Z,71.51
2023-05-13T00:40:39.478Z,71.93
2023-05-13T00:43:07.108Z,72.74
2023-05-13T00:45:34.616Z,72.97
2023-05-13T00:48:02.210Z,72.90
2023-05-13T00:50:29.795Z,73.71
2023-05-13T00:52:58.426Z,74.40
2023-05-13T00:55:27.590Z,74.27
2023-05-13T00:57:55.070Z,74.21
2023-05-13T01:00:22.763Z,73.78
2023-05-13T01:02:54.975Z,73.94
2023-05-13T01:05:32.664Z,74.44
2023-05-13T01:08:03.865Z,74.06
2023-05-13T01:10:37.973Z,74.18
2023-05-13T01:13:09.879Z,74.45
2023-05-13T01:15:41.750Z,74.98
2023-05-13T01:18:14.641Z,74.54
2023-05-13T01:20:43.788Z,73.71
2023-05-13T01:23:13.504Z,73.16
2023-05-13T01:25:41.537Z,73.57
2023-05-13T01:28:10.016Z,74.14
2023-05-13T01:30:40.152Z,74.20
2023-05-13T01:33:09.674Z,74.05
2023-05-13T01:35:37.243Z,74.47
2023-05-13T01:38:05.740Z,75.68
2023-05-13T01:40:35.881Z,76.81
2023-05-13T01:43:06.212Z,77.38
2023-05-13T01:45:34.142Z,76.66
2023-05-13T01:48:02.547Z,75.65
2023-05-13T01:50:39.968Z,76.26
2023-05-13T01:53:07.862Z,75.79
2023-05-13T01:55:39.205Z,76.01
2023-05-13T01:58:06.862Z,76.24
2023-05-13T02:00:34.381Z,76.79
2023-05-13T02:03:01.907Z,76.77
2023-05-13T02:05:31.520Z,76.79
2023-05-13T02:07:59.300Z,75.35
2023-05-13T02:10:26.815Z,75.89
2023-05-13T02:12:55.705Z,76.25
2023-05-13T02:15:23.345Z,76.37
2023-05-13T02:17:51.018Z,76.31
2023-05-13T02:20:18.780Z,76.46
2023-05-13T02:22:46.480Z,76.39
2023-05-13T02:25:14.207Z,76.43
2023-05-13T02:27:41.774Z,75.25
2023-05-13T02:30:11.443Z,74.88
2023-05-13T02:32:42.598Z,75.60
2023-05-13T02:35:10.823Z,76.45
2023-05-13T02:37:38.459Z,76.27
2023-05-13T02:40:07.158Z,75.67
2023-05-13T02:42:34.649Z,75.50
2023-05-13T02:45:02.193Z,76.63
2023-05-13T02:47:34.311Z,76.31
2023-05-13T02:50:07.909Z,76.29
2023-05-13T02:52:36.105Z,75.33
2023-05-13T02:55:04.210Z,75.03
2023-05-13T02:57:31.780Z,75.43
2023-05-13T02:59:59.586Z,75.77
2023-05-13T03:02:28.027Z,76.54
2023-05-13T03:04:57.248Z,76.35
2023-05-13T03:07:24.853Z,77.31
2023-05-13T03:09:52.339Z,78.59
2023-05-13T03:12:19.933Z,78.41
2023-05-13T03:14:48.900Z,78.49
2023-05-13T03:17:16.558Z,77.31
2023-05-13T03:19:44.206Z,75.78
2023-05-13T03:22:13.093Z,74.79
2023-05-13T03:24:41.618Z,76.47
2023-05-13T03:27:09.960Z,76.91
2023-05-13T03:29:39.704Z,78.10
2023-05-13T03:32:08.295Z,78.08
2023-05-13T03:34:37.788Z,79.86
2023-05-13T03:37:05.791Z,79.36
2023-05-13T03:39:34.688Z,79.23
2023-05-13T03:42:02.793Z,78.13
2023-05-13T03:44:30.350Z,78.26
2023-05-13T03:46:57.846Z,78.62
2023-05-13T03:49:26.126Z,79.56
2023-05-13T03:51:53.595Z,79.71
2023-05-13T03:54:21.144Z,78.81
2023-05-13T03:56:50.023Z,78.38
2023-05-13T03:59:17.537Z,78.12
2023-05-13T04:01:45.132Z,78.48
2023-05-13T04:04:12.682Z,78.84
2023-05-13T04:06:40.259Z,79.77
2023-05-13T04:09:07.774Z,79.29
2023-05-13T04:11:36.228Z,78.83
2023-05-13T04:14:05.080Z,78.83
2023-05-13T04:16:36.051Z,79.37
2023-05-13T04:19:06.572Z,79.36
2023-05-13T04:21:34.092Z,79.81
2023-05-13T04:24:01.607Z,80.03
2023-05-13T04:26:29.175Z,80.51
2023-05-13T04:28:56.709Z,80.93
2023-05-13T04:31:25.903Z,80.40
2023-05-13T04:33:53.411Z,80.51
2023-05-13T04:36:20.985Z,80.53
2023-05-13T04:38:48.513Z,80.07
2023-05-13T04:41:17.419Z,79.42
2023-05-13T04:43:46.742Z,80.10
2023-05-13T04:46:14.394Z,80.22
2023-05-13T04:48:48.026Z,79.57
2023-05-13T04:51:16.501Z,78.73
2023-05-13T04:53:44.439Z,78.71
2023-05-13T04:56:12.616Z,79.17
2023-05-13T04:58:40.143Z,79.50
2023-05-13T05:01:08.786Z,79.24
2023-05-13T05:03:36.352Z,79.32
2023-05-13T05:06:06.692Z,78.91
2023-05-13T05:08:34.202Z,78.54
2023-05-13T05:11:01.890Z,78.91
2023-05-13T05:13:31.059Z,78.99
2023-05-13T05:15:58.671Z,78.37
2023-05-13T05:18:26.310Z,78.03
2023-05-13T05:20:53.908Z,78.63
2023-05-13T05:23:23.969Z,78.69
2023-05-13T05:26:03.967Z,78.87
2023-05-13T05:28:34.398Z,79.06
2023-05-13T05:31:02.031Z,79.24
2023-05-13T05:33:32.084Z,78.45
2023-05-13T05:36:00.368Z,78.04
2023-05-13T05:38:29.335Z,78.95
2023-05-13T05:40:58.936Z,78.74
2023-05-13T05:43:26.863Z,77.50
2023-05-13T05:45:54.443Z,78.04
2023-05-13T05:48:23.125Z,77.39
2023-05-13T05:50:51.056Z,77.14
2023-05-13T05:53:25.972Z,77.20
2023-05-13T05:55:54.812Z,77.25
2023-05-13T05:58:22.455Z,76.83
2023-05-13T06:00:51.853Z,76.46
2023-05-13T06:03:19.565Z,76.03
2023-05-13T06:05:47.364Z,75.81
2023-05-13T06:08:14.979Z,75.42
2023-05-13T06:10:42.560Z,75.41
2023-05-13T06:13:12.184Z,74.76
2023-05-13T06:15:39.847Z,73.79
2023-05-13T06:18:07.700Z,73.95
2023-05-13T06:20:35.676Z,73.38
2023-05-13T06:23:03.218Z,73.18
2023-05-13T06:25:30.802Z,73.46
2023-05-13T06:27:59.003Z,73.02
2023-05-13T06:30:29.176Z,73.12
2023-05-13T06:33:01.447Z,72.97
2023-05-13T06:35:30.924Z,72.37
2023-05-13T06:37:59.391Z,69.32
2023-05-13T06:40:27.155Z,68.28
2023-05-13T06:42:55.801Z,65.09
2023-05-13T06:45:31.149Z,65.54
2023-05-13T06:47:59.120Z,64.29
2023-05-13T06:50:26.696Z,63.52
2023-05-13T06:52:54.197Z,62.45
2023-05-13T06:55:21.760Z,61.71
2023-05-13T06:57:49.253Z,59.75
2023-05-13T07:00:17.759Z,59.64
2023-05-13T07:02:46.605Z,59.07
2023-05-13T07:05:14.152Z,58.92
2023-05-13T07:07:43.197Z,58.92
2023-05-13T07:10:11.341Z,58.24
2023-05-13T07:12:38.797Z,58.40
2023-05-13T07:15:07.758Z,57.83
2023-05-13T07:17:35.344Z,56.89
2023-05-13T07:20:04.526Z,56.60
2023-05-13T07:22:32.002Z,57.08
2023-05-13T07:24:59.589Z,56.43
2023-05-13T07:27:27.063Z,55.98
2023-05-13T07:29:55.240Z,55.92
2023-05-13T07:32:22.775Z,55.49
2023-05-13T07:34:51.123Z,54.72
2023-05-13T07:37:19.928Z,54.13
2023-05-13T07:39:47.431Z,54.27
2023-05-13T07:42:15.326Z,52.80
2023-05-13T07:44:42.781Z,51.58
2023-05-13T07:47:10.361Z,51.33
2023-05-13T07:49:37.966Z,50.33
2023-05-13T07:52:05.893Z,50.03
2023-05-13T07:54:34.717Z,49.26
2023-05-13T07:57:02.798Z,48.77
2023-05-13T07:59:30.413Z,48.35
2023-05-13T08:01:57.898Z,48.19
2023-05-13T08:04:26.010Z,47.93
2023-05-13T08:06:53.722Z,47.38
2023-05-13T08:09:21.207Z,46.57
2023-05-13T08:11:50.120Z,46.71
2023-05-13T08:14:17.660Z,45.91
2023-05-13T08:16:45.261Z,44.94
2023-05-13T08:19:15.127Z,44.64
2023-05-13T08:21:42.652Z,44.57
2023-05-13T08:24:10.232Z,44.71
2023-05-13T08:26:38.235Z,44.98
2023-05-13T08:29:07.646Z,44.51
2023-05-13T08:31:35.185Z,44.56
2023-05-13T08:34:02.858Z,44.96
2023-05-13T08:36:30.459Z,44.70
2023-05-13T08:38:58.018Z,43.99
2023-05-13T08:41:25.638Z,43.32
2023-05-13T08:43:53.239Z,43.60
2023-05-13T08:46:25.714Z,42.71
2023-05-13T08:48:54.936Z,42.40
2023-05-13T08:51:22.596Z,42.67
2023-05-13T08:53:50.807Z,43.00
2023-05-13T08:56:18.290Z,42.11
2023-05-13T08:58:45.863Z,42.34
2023-05-13T09:01:13.517Z,42.56
2023-05-13T09:03:51.283Z,42.61
2023-05-13T09:06:18.791Z,43.48
2023-05-13T09:08:46.377Z,43.56
2023-05-13T09:11:14.046Z,44.04
2023-05-13T09:13:42.674Z,44.17
2023-05-13T09:16:10.392Z,44.51
2023-05-13T09:18:38.738Z,44.20
2023-05-13T09:21:26.734Z,44.83
2023-05-13T09:23:57.838Z,44.69
2023-05-13T09:26:29.075Z,44.31
2023-05-13T09:29:18.294Z,43.74
2023-05-13T09:31:46.825Z,43.86
2023-05-13T09:34:14.371Z,44.19
2023-05-13T09:36:43.246Z,43.74
2023-05-13T09:39:12.510Z,43.48
2023-05-13T09:41:39.998Z,43.40
2023-05-13T09:44:09.126Z,43.72
2023-05-13T09:46:36.668Z,43.37
2023-05-13T09:49:05.694Z,43.04
2023-05-13T09:51:33.182Z,42.78
2023-05-13T09:54:06.925Z,43.35
2023-05-13T09:56:36.129Z,43.90
2023-05-13T09:59:04.574Z,44.45
2023-05-13T10:01:32.121Z,45.07
2023-05-13T10:03:59.861Z,45.19
2023-05-13T10:06:29.246Z,45.40
2023-05-13T10:08:59.573Z,45.39
2023-05-13T10:11:28.785Z,45.94
2023-05-13T10:14:00.045Z,46.22
2023-05-13T10:16:29.141Z,46.63
2023-05-13T10:18:58.291Z,46.88
2023-05-13T10:21:26.415Z,47.11
2023-05-13T10:23:54.217Z,47.71
2023-05-13T10:26:22.117Z,47.98
2023-05-13T10:28:51.646Z,47.89
2023-05-13T10:31:19.159Z,47.98
2023-05-13T10:33:46.800Z,48.36
2023-05-13T10:36:27.516Z,48.39
2023-05-13T10:39:07.504Z,48.83
2023-05-13T10:42:20.548Z,48.72
2023-05-13T10:44:54.606Z,48.37
2023-05-13T10:47:22.217Z,48.24
2023-05-13T10:49:52.018Z,50.86
2023-05-13T10:52:19.956Z,52.73
2023-05-13T10:55:02.346Z,53.23
2023-05-13T10:57:30.990Z,52.62
2023-05-13T11:00:16.447Z,53.25
2023-05-13T11:02:44.402Z,52.81
2023-05-13T11:05:20.316Z,53.25
2023-05-13T11:07:56.379Z,52.36
2023-05-13T11:10:27.458Z,52.25
2023-05-13T11:13:24.494Z,51.61
2023-05-13T11:15:54.826Z,50.39
2023-05-13T11:18:30.940Z,49.70
2023-05-13T11:21:05.207Z,48.73
2023-05-13T11:23:34.564Z,48.45
2023-05-13T11:26:14.104Z,47.62
2023-05-13T11:28:59.192Z,47.14
2023-05-13T11:31:29.899Z,46.54
2023-05-13T11:34:07.824Z,46.71
2023-05-13T11:36:35.987Z,45.08
2023-05-13T11:39:08.219Z,43.81
2023-05-13T11:41:36.454Z,43.76
2023-05-13T11:44:05.977Z,44.58
2023-05-13T11:46:34.912Z,44.64
2023-05-13T11:49:02.823Z,44.11
2023-05-13T11:51:31.956Z,44.41
2023-05-13T11:54:03.819Z,44.28
2023-05-13T11:56:31.767Z,43.46
2023-05-13T11:59:15.395Z,44.17
2023-05-13T12:01:44.806Z,43.92
2023-05-13T12:04:12.634Z,44.33
2023-05-13T12:06:45.733Z,44.36
2023-05-13T12:09:13.417Z,44.23
2023-05-13T12:11:41.566Z,44.11
2023-05-13T12:14:09.285Z,43.65
2023-05-13T12:16:37.037Z,45.47
2023-05-13T12:19:08.966Z,47.22
2023-05-13T12:21:37.407Z,47.89
2023-05-13T12:24:18.102Z,48.80
2023-05-13T12:26:45.629Z,48.95
2023-05-13T12:29:13.140Z,49.21
2023-05-13T12:31:42.565Z,48.96
2023-05-13T12:34:11.633Z,48.86
2023-05-13T12:36:40.059Z,48.48
2023-05-13T12:39:09.839Z,48.09
2023-05-13T12:41:38.863Z,47.86
2023-05-13T12:44:09.710Z,47.62
2023-05-13T12:46:38.060Z,47.01
2023-05-13T12:49:06.444Z,46.43
2023-05-13T12:51:35.414Z,46.27
2023-05-13T12:54:02.928Z,45.59
2023-05-13T12:56:30.445Z,45.83
2023-05-13T12:58:58.784Z,45.78
2023-05-13T13:01:26.309Z,45.67
2023-05-13T13:03:54.077Z,45.78
2023-05-13T13:06:21.886Z,46.08
2023-05-13T13:08:50.776Z,46.53
2023-05-13T13:11:19.332Z,46.00
2023-05-13T13:13:47.211Z,45.92
2023-05-13T13:16:14.828Z,47.91
2023-05-13T13:18:42.764Z,48.92
2023-05-13T13:21:11.053Z,49.41
2023-05-13T13:23:38.585Z,47.97
2023-05-13T13:26:07.450Z,47.45
2023-05-13T13:28:35.089Z,46.66
2023-05-13T13:31:02.552Z,46.44
2023-05-13T13:33:30.025Z,46.21
2023-05-13T13:35:57.520Z,46.15
2023-05-13T13:38:25.019Z,45.08
2023-05-13T13:40:52.499Z,44.98
2023-05-13T13:43:21.367Z,45.18
2023-05-13T13:45:48.908Z,45.12
2023-05-13T13:48:16.449Z,45.70
2023-05-13T13:50:45.408Z,47.63
2023-05-13T13:53:14.890Z,47.28
2023-05-13T13:55:42.362Z,48.55
2023-05-13T13:58:10.079Z,47.81
2023-05-13T14:00:38.872Z,46.30
2023-05-13T14:03:06.455Z,47.91
2023-05-13T14:05:34.041Z,47.67
2023-05-13T14:08:01.677Z,46.44
2023-05-13T14:10:29.146Z,45.97
2023-05-13T14:12:56.659Z,45.83
2023-05-13T14:15:28.527Z,45.65
2023-05-13T14:17:57.452Z,48.06
2023-05-13T14:20:25.572Z,49.42
2023-05-13T14:22:53.057Z,50.12
2023-05-13T14:25:20.631Z,50.72
2023-05-13T14:27:48.160Z,51.01
2023-05-13T14:30:15.803Z,51.30
2023-05-13T14:32:44.946Z,51.55
2023-05-13T14:35:14.454Z,51.28
2023-05-13T14:37:42.196Z,49.92
2023-05-13T14:40:10.571Z,48.79
2023-05-13T14:42:38.106Z,48.55
2023-05-13T14:45:06.485Z,48.41
2023-05-13T14:47:35.243Z,48.25
2023-05-13T14:50:02.853Z,48.16
2023-05-13T14:52:31.778Z,47.82
2023-05-13T14:54:59.226Z,48.46
2023-05-13T14:57:26.838Z,49.06
2023-05-13T14:59:54.330Z,48.93
2023-05-13T15:02:21.935Z,48.89
2023-05-13T15:04:49.585Z,48.87
2023-05-13T15:07:17.103Z,48.79
2023-05-13T15:09:45.969Z,48.41
2023-05-13T15:12:13.613Z,48.57
2023-05-13T15:14:41.059Z,48.44
2023-05-13T15:17:11.710Z,48.03
2023-05-13T15:19:39.407Z,48.39
2023-05-13T15:22:06.890Z,47.57
2023-05-13T15:24:34.477Z,46.85
2023-05-13T15:27:03.705Z,46.08
2023-05-13T15:29:31.242Z,45.80
2023-05-13T15:31:59.329Z,45.19
2023-05-13T15:34:26.829Z,45.34
2023-05-13T15:36:54.336Z,45.81
2023-05-13T15:39:22.009Z,46.27
2023-05-13T15:41:49.532Z,46.87
2023-05-13T15:44:18.400Z,46.77
2023-05-13T15:46:48.752Z,46.94
2023-05-13T15:49:17.653Z,47.31
2023-05-13T15:51:45.175Z,47.63
2023-05-13T15:54:12.695Z,47.82
2023-05-13T15:56:40.286Z,47.82
2023-05-13T15:59:07.849Z,48.08
2023-05-13T16:01:37.568Z,48.32
2023-05-13T16:04:05.298Z,48.52
2023-05-13T16:06:32.863Z,48.22
2023-05-13T16:09:01.885Z,48.28
2023-05-13T16:11:29.865Z,48.68
2023-05-13T16:13:57.424Z,48.71
2023-05-13T16:16:25.095Z,49.54
2023-05-13T16:18:54.029Z,50.19
2023-05-13T16:21:21.912Z,50.42
2023-05-13T16:23:50.966Z,50.80
2023-05-13T16:26:18.637Z,50.56
2023-05-13T16:28:46.162Z,50.72
2023-05-13T16:31:13.685Z,50.97
2023-05-13T16:33:41.256Z,50.52
2023-05-13T16:36:10.976Z,49.89
2023-05-13T16:38:41.144Z,49.62
2023-05-13T16:41:08.749Z,49.66
2023-05-13T16:43:36.431Z,49.72
2023-05-13T16:46:03.947Z,49.96
2023-05-13T16:48:31.485Z,50.63
2023-05-13T16:50:58.981Z,52.79
2023-05-13T16:53:27.943Z,53.41
2023-05-13T16:55:55.468Z,53.75
2023-05-13T16:58:22.971Z,54.53
2023-05-13T17:00:50.488Z,54.53
2023-05-13T17:03:18.129Z,54.44
2023-05-13T17:05:45.990Z,54.16
2023-05-13T17:08:13.466Z,54.38
2023-05-13T17:10:42.354Z,54.77
2023-05-13T17:13:09.829Z,54.86
2023-05-13T17:15:37.322Z,55.17
2023-05-13T17:18:05.046Z,55.57
2023-05-13T17:20:32.593Z,56.01
2023-05-13T17:23:00.097Z,56.02
2023-05-13T17:25:27.640Z,55.82
2023-05-13T17:27:56.464Z,55.75
2023-05-13T17:30:24.200Z,55.96
2023-05-13T17:32:51.916Z,55.34
2023-05-13T17:35:19.481Z,55.27
2023-05-13T17:37:46.985Z,54.66
2023-05-13T17:40:14.630Z,54.92
2023-05-13T17:42:42.136Z,54.90
2023-05-13T17:45:11.635Z,54.91
2023-05-13T17:47:39.306Z,54.90
2023-05-13T17:50:07.781Z,54.73
2023-05-13T17:52:35.340Z,55.15
2023-05-13T17:55:02.845Z,55.02
2023-05-13T17:57:31.887Z,54.97
2023-05-13T17:59:59.386Z,55.02
2023-05-13T18:02:28.232Z,56.14
2023-05-13T18:04:55.857Z,56.21
2023-05-13T18:07:23.345Z,56.50
2023-05-13T18:09:50.886Z,56.59
2023-05-13T18:12:18.364Z,56.75
2023-05-13T18:14:45.882Z,56.61
2023-05-13T18:17:13.406Z,57.23
2023-05-13T18:19:42.240Z,57.35
2023-05-13T18:22:09.775Z,57.22
2023-05-13T18:24:38.415Z,57.73
2023-05-13T18:27:06.368Z,58.08
2023-05-13T18:29:34.195Z,58.02
2023-05-13T18:32:01.915Z,58.53
2023-05-13T18:34:29.696Z,58.05
2023-05-13T18:36:58.581Z,57.89
2023-05-13T18:39:26.388Z,58.10
2023-05-13T18:41:53.840Z,57.96
2023-05-13T18:44:21.373Z,57.78
2023-05-13T18:46:48.976Z,57.84
2023-05-13T18:49:16.467Z,57.67
2023-05-13T18:51:45.248Z,57.94
2023-05-13T18:54:14.184Z,57.94
2023-05-13T18:56:42.049Z,58.16
2023-05-13T18:59:09.545Z,58.15
2023-05-13T19:01:37.202Z,58.22
2023-05-13T19:04:04.812Z,58.25
2023-05-13T19:06:33.253Z,58.40
2023-05-13T19:09:00.751Z,58.35
2023-05-13T19:11:29.590Z,58.33
2023-05-13T19:13:58.255Z,58.44
2023-05-13T19:16:26.027Z,58.67
2023-05-13T19:18:54.293Z,58.53
2023-05-13T19:21:23.269Z,58.30
2023-05-13T19:23:52.076Z,58.25
2023-05-13T19:26:21.518Z,58.25
2023-05-13T19:28:50.903Z,58.52
2023-05-13T19:31:18.977Z,58.68
2023-05-13T19:33:46.619Z,58.47
2023-05-13T19:36:14.158Z,58.53
2023-05-13T19:38:41.723Z,59.00
2023-05-13T19:41:09.267Z,58.96
2023-05-13T19:43:36.801Z,59.12
2023-05-13T19:46:05.755Z,59.11
2023-05-13T19:48:33.343Z,58.97
2023-05-13T19:51:00.850Z,58.96
2023-05-13T19:53:28.351Z,59.05
2023-05-13T19:55:56.660Z,58.95
2023-05-13T19:58:24.242Z,59.64
2023-05-13T20:00:51.743Z,59.70
2023-05-13T20:03:20.819Z,59.54
2023-05-13T20:05:49.134Z,59.88
2023-05-13T20:08:16.660Z,59.66
2023-05-13T20:10:44.192Z,59.36
2023-05-13T20:13:11.836Z,59.33
2023-05-13T20:15:39.317Z,59.43
2023-05-13T20:18:07.266Z,59.50
2023-05-13T20:20:36.110Z,59.49
2023-05-13T20:23:03.634Z,59.50
2023-05-13T20:25:31.124Z,59.33
2023-05-13T20:27:58.650Z,60.33
2023-05-13T20:30:26.296Z,59.87
2023-05-13T20:32:53.925Z,60.17
2023-05-13T20:35:21.957Z,60.29
2023-05-13T20:37:50.777Z,60.18
2023-05-13T20:40:18.255Z,60.17
2023-05-13T20:42:45.787Z,59.93
2023-05-13T20:45:13.481Z,60.09
2023-05-13T20:47:41.445Z,59.95
2023-05-13T20:50:09.911Z,60.15
2023-05-13T20:52:37.404Z,60.14
2023-05-13T20:55:07.509Z,60.73
2023-05-13T20:57:34.977Z,60.41
2023-05-13T21:00:02.475Z,60.50
2023-05-13T21:02:29.958Z,60.54
2023-05-13T21:04:57.523Z,60.08
2023-05-13T21:07:25.023Z,60.08
2023-05-13T21:09:52.496Z,60.17
2023-05-13T21:12:21.306Z,60.61
2023-05-13T21:14:51.776Z,60.71
2023-05-13T21:17:21.388Z,60.62
2023-05-13T21:19:49.147Z,60.79
2023-05-13T21:22:16.942Z,60.71
2023-05-13T21:24:44.406Z,61.06
2023-05-13T21:27:11.876Z,61.02
2023-05-13T21:29:40.897Z,60.61
2023-05-13T21:32:08.385Z,60.87
2023-05-13T21:34:36.153Z,60.62
2023-05-13T21:37:03.629Z,60.87
2023-05-13T21:39:31.126Z,60.67
2023-05-13T21:42:00.065Z,60.69
2023-05-13T21:44:28.878Z,60.98
2023-05-13T21:46:57.790Z,61.14
2023-05-13T21:49:25.308Z,61.22
2023-05-13T21:51:52.792Z,61.09
2023-05-13T21:54:20.473Z,61.39
2023-05-13T21:56:48.031Z,61.58
2023-05-13T21:59:15.541Z,61.37
2023-05-13T22:01:43.134Z,61.68
2023-05-13T22:04:11.992Z,62.20
2023-05-13T22:06:39.509Z,62.61
2023-05-13T22:09:07.073Z,63.03
2023-05-13T22:11:34.614Z,63.64
2023-05-13T22:14:02.105Z,63.31
2023-05-13T22:16:29.707Z,63.62
2023-05-13T22:18:59.692Z,63.95
2023-05-13T22:21:28.648Z,63.79
2023-05-13T22:23:56.139Z,63.88
2023-05-13T22:26:23.677Z,64.38
2023-05-13T22:28:51.244Z,64.33
2023-05-13T22:31:18.841Z,64.79
2023-05-13T22:33:46.575Z,65.15
2023-05-13T22:36:14.538Z,65.12
2023-05-13T22:38:43.839Z,65.45
2023-05-13T22:41:11.979Z,64.64
2023-05-13T22:43:39.532Z,64.82
2023-05-13T22:46:07.058Z,65.89
2023-05-13T22:48:34.641Z,66.13
2023-05-13T22:51:02.182Z,65.57
2023-05-13T22:53:29.688Z,65.35
2023-05-13T22:55:58.515Z,65.75
2023-05-13T22:58:25.997Z,66.35
2023-05-13T23:00:53.652Z,65.64
2023-05-13T23:03:21.343Z,66.14
2023-05-13T23:05:48.969Z,65.88
2023-05-13T23:08:16.456Z,65.88
2023-05-13T23:10:43.936Z,66.78
2023-05-13T23:13:12.761Z,67.40
2023-05-13T23:15:40.401Z,67.21
2023-05-13T23:18:08.035Z,66.84
2023-05-13T23:20:35.556Z,67.63
2023-05-13T23:23:03.041Z,67.80
2023-05-13T23:25:30.544Z,68.46
2023-05-13T23:27:58.025Z,67.57
2023-05-13T23:30:26.856Z,67.95
2023-05-13T23:32:54.357Z,68.99
2023-05-13T23:35:22.040Z,68.20
2023-05-13T23:37:50.600Z,68.73
2023-05-13T23:40:18.308Z,69.10
2023-05-13T23:42:45.804Z,69.91
2023-05-13T23:45:13.436Z,70.60
2023-05-13T23:47:42.421Z,71.53
2023-05-13T23:50:10.667Z,70.91
2023-05-13T23:52:38.243Z,70.94
2023-05-13T23:55:06.644Z,71.22
2023-05-13T23:57:34.473Z,71.71
